createdAt,value
2023-02-06T03:29:46.559Z,95922.78
2023-02-06T03:32:24.203Z,95919.34
2023-02-06T03:35:06.319Z,95921.06
2023-02-06T03:37:34.730Z,95920.94
2023-02-06T03:40:02.399Z,95924.25
2023-02-06T06:47:12.614Z,96035.09
2023-02-06T06:49:39.558Z,96036.63
2023-02-06T06:52:13.424Z,96046.47
2023-02-06T06:54:46.894Z,96053.03
2023-02-06T06:57:13.846Z,96048.78
2023-02-06T06:59:40.743Z,96059.47
2023-02-06T07:02:07.862Z,96056.06
2023-02-06T07:04:34.861Z,96057.59
2023-02-06T07:07:01.833Z,96054.94
2023-02-06T07:09:28.702Z,96052.31
2023-02-06T07:11:55.692Z,96053.78
2023-02-06T07:14:22.571Z,96055.31
2023-02-06T07:16:49.381Z,96065.06
2023-02-06T07:19:16.339Z,96072.47
2023-02-06T07:21:43.214Z,96071.59
2023-02-06T07:24:10.104Z,96079.72
2023-02-06T07:26:37.022Z,96079.81
2023-02-06T07:29:04.333Z,96080.41
2023-02-06T07:31:31.256Z,96076.03
2023-02-06T07:33:58.320Z,96077.53
2023-02-06T07:36:25.332Z,96081.59
2023-02-06T07:38:52.162Z,96076.31
2023-02-06T07:41:19.036Z,96081.22
2023-02-06T07:43:46.028Z,96081.00
2023-02-06T07:46:13.058Z,96065.00
2023-02-06T07:48:40.061Z,96084.06
2023-02-06T07:51:08.652Z,96084.06
2023-02-06T07:53:36.408Z,96091.69
2023-02-06T07:56:10.324Z,96087.38
2023-02-06T07:58:37.216Z,96086.84
2023-02-06T08:01:05.598Z,96094.25
2023-02-06T08:03:33.555Z,96095.63
2023-02-06T08:06:00.916Z,96097.75
2023-02-06T08:08:27.764Z,96095.72
2023-02-06T08:10:54.631Z,96096.38
2023-02-06T08:13:21.627Z,96090.53
2023-02-06T08:15:48.653Z,96096.97
2023-02-06T08:18:15.527Z,96095.09
2023-02-06T08:20:42.390Z,96098.25
2023-02-06T08:23:09.266Z,96098.06
2023-02-06T08:25:36.431Z,96091.22
2023-02-06T08:28:03.799Z,96090.75
2023-02-06T08:30:32.483Z,96085.25
2023-02-06T08:32:59.379Z,96093.34
2023-02-06T08:35:26.455Z,96079.78
2023-02-06T08:37:53.310Z,96091.84
2023-02-06T08:40:21.337Z,96085.19
2023-02-06T08:42:51.189Z,96094.09
2023-02-06T08:45:18.593Z,96091.03
2023-02-06T08:47:45.376Z,96100.75
2023-02-06T08:50:13.387Z,96101.06
2023-02-06T08:52:40.474Z,96100.88
2023-02-06T08:55:08.209Z,96105.94
2023-02-06T08:57:35.293Z,96103.84
2023-02-06T09:00:02.434Z,96104.72
2023-02-06T09:02:29.343Z,96103.91
2023-02-06T09:04:56.228Z,96083.69
2023-02-06T09:07:23.214Z,96100.88
2023-02-06T09:09:50.094Z,96105.66
2023-02-06T09:12:17.092Z,96095.72
2023-02-06T09:14:44.611Z,96104.56
2023-02-06T09:17:11.577Z,96105.91
2023-02-06T09:19:38.463Z,96097.44
2023-02-06T09:22:07.135Z,96086.69
2023-02-06T09:24:34.205Z,96097.03
2023-02-06T09:27:01.233Z,96103.63
2023-02-06T09:29:29.641Z,96107.78
2023-02-06T09:31:57.671Z,96109.66
2023-02-06T09:34:26.122Z,96108.75
2023-02-06T09:36:54.791Z,96104.03
2023-02-06T09:39:21.703Z,96104.19
2023-02-06T09:41:55.286Z,96103.00
2023-02-06T09:44:28.389Z,96092.44
2023-02-06T09:47:02.138Z,96086.91
2023-02-06T09:49:58.718Z,96089.34
2023-02-06T09:52:34.746Z,96080.50
2023-02-06T09:55:29.862Z,96079.91
2023-02-06T09:58:05.780Z,96071.41
2023-02-06T10:00:47.923Z,96070.75
2023-02-06T10:03:14.966Z,96069.31
2023-02-06T10:06:00.658Z,96083.38
2023-02-06T10:08:38.266Z,96068.72
2023-02-06T10:11:16.205Z,96067.38
2023-02-06T10:13:52.312Z,96055.38
2023-02-06T10:16:46.019Z,96044.84
2023-02-06T10:19:18.757Z,96060.50
2023-02-06T10:21:52.841Z,96047.91
2023-02-06T10:24:43.536Z,96054.81
2023-02-06T10:27:13.431Z,96047.38
2023-02-06T10:29:43.069Z,96045.53
2023-02-06T10:32:09.819Z,96044.19
2023-02-06T10:34:42.867Z,96037.72
2023-02-06T10:37:49.732Z,96038.06
2023-02-06T10:40:49.181Z,96033.72
2023-02-06T10:43:34.222Z,96030.03
2023-02-06T10:46:06.184Z,96038.34
2023-02-06T10:48:44.588Z,96030.09
2023-02-06T10:51:22.312Z,96032.44
2023-02-06T10:53:53.397Z,96036.47
2023-02-06T10:56:28.881Z,96030.50
2023-02-06T10:59:04.818Z,96026.75
2023-02-06T11:01:37.156Z,96029.47
2023-02-06T11:04:06.109Z,96026.09
2023-02-06T11:06:33.593Z,96015.84
2023-02-06T11:09:00.753Z,96015.16
2023-02-06T11:11:36.269Z,96013.31
2023-02-06T11:14:24.933Z,96011.44
2023-02-06T11:16:52.979Z,96012.88
2023-02-06T11:19:48.709Z,96016.53
2023-02-06T11:22:25.967Z,96025.53
2023-02-06T11:25:08.296Z,96023.81
2023-02-06T11:27:36.362Z,96015.03
2023-02-06T11:30:25.734Z,96018.25
2023-02-06T11:33:04.292Z,96014.13
2023-02-06T11:35:38.546Z,96017.84
2023-02-06T11:38:19.349Z,96028.28
2023-02-06T11:40:55.313Z,96023.63
2023-02-06T11:43:44.529Z,96017.81
2023-02-06T11:46:11.414Z,96009.69
2023-02-06T11:48:44.737Z,96013.53
2023-02-06T11:51:14.040Z,96015.59
2023-02-06T11:54:04.054Z,96010.09
2023-02-06T11:56:31.991Z,96012.22
2023-02-06T11:59:15.706Z,96008.28
2023-02-06T12:01:46.240Z,96018.38
2023-02-06T12:04:46.103Z,96014.22
2023-02-06T12:07:37.150Z,96001.75
2023-02-06T12:10:14.093Z,96013.28
2023-02-06T12:12:45.860Z,96021.78
2023-02-06T12:15:43.647Z,96010.25
2023-02-06T12:18:19.865Z,96011.81
2023-02-06T12:20:54.114Z,96011.81
2023-02-06T12:23:31.670Z,96023.09
2023-02-06T12:26:02.232Z,96017.56
2023-02-06T12:28:32.034Z,96009.28
2023-02-06T12:31:09.352Z,96004.22
2023-02-06T12:33:59.122Z,96014.03
2023-02-06T12:36:50.124Z,96006.75
2023-02-06T12:39:23.839Z,95998.22
2023-02-06T12:42:08.651Z,96019.81
2023-02-06T12:45:22.981Z,96020.50
2023-02-06T12:47:57.852Z,96026.66
2023-02-06T12:50:33.515Z,96025.41
2023-02-06T12:53:35.493Z,96028.69
2023-02-06T12:56:14.793Z,96022.53
2023-02-06T12:58:44.411Z,96033.28
2023-02-06T13:01:32.256Z,96031.50
2023-02-06T13:04:05.881Z,96023.63
2023-02-06T13:07:08.117Z,96037.88
2023-02-06T13:09:41.480Z,96040.69
2023-02-06T13:12:21.556Z,96039.22
2023-02-06T13:14:50.502Z,96032.81
2023-02-06T13:17:24.770Z,96039.09
2023-02-06T13:20:01.276Z,96048.25
2023-02-06T13:22:44.893Z,96057.28
2023-02-06T13:25:30.133Z,96062.97
2023-02-06T13:28:02.088Z,96056.72
2023-02-06T13:30:28.992Z,96058.00
2023-02-06T13:33:09.303Z,96053.31
2023-02-06T13:35:57.958Z,96054.47
2023-02-06T13:38:35.858Z,96055.47
2023-02-06T13:41:15.005Z,96055.16
2023-02-06T13:43:55.601Z,96056.53
2023-02-06T13:46:33.104Z,96067.50
2023-02-06T13:49:14.984Z,96054.06
2023-02-06T13:52:05.874Z,96057.56
2023-02-06T13:54:53.807Z,96064.28
2023-02-06T13:57:41.359Z,96060.84
2023-02-06T14:00:20.521Z,96054.16
2023-02-06T14:02:51.897Z,96062.16
2023-02-06T14:06:05.475Z,96068.00
2023-02-06T14:09:02.663Z,96063.09
2023-02-06T14:12:15.817Z,96077.41
2023-02-06T14:15:13.289Z,96083.75
2023-02-06T14:18:00.790Z,96079.09
2023-02-06T14:20:41.664Z,96079.22
2023-02-06T14:23:34.794Z,96092.34
2023-02-06T14:26:23.293Z,96097.94
2023-02-06T14:29:19.179Z,96096.69
2023-02-06T14:31:49.023Z,96098.00
2023-02-06T14:34:22.042Z,96108.84
2023-02-06T14:37:16.730Z,96102.84
2023-02-06T14:39:51.105Z,96100.34
2023-02-06T14:42:39.244Z,96104.25
2023-02-06T14:45:24.786Z,96097.88
2023-02-06T14:47:53.393Z,96092.91
2023-02-06T14:50:26.847Z,96106.47
2023-02-06T14:53:31.355Z,96109.91
2023-02-06T14:56:23.946Z,96102.66
2023-02-06T14:58:51.568Z,96097.97
2023-02-06T15:01:18.375Z,96115.66
2023-02-06T15:03:46.950Z,96120.06
2023-02-06T15:06:32.079Z,96119.19
2023-02-06T15:08:59.050Z,96108.41
2023-02-06T15:11:35.310Z,96116.47
2023-02-06T15:14:18.942Z,96125.00
2023-02-06T15:16:48.065Z,96122.66
2023-02-06T15:19:21.692Z,96126.00
2023-02-06T15:21:50.241Z,96133.72
2023-02-06T15:24:22.988Z,96128.88
2023-02-06T15:27:03.102Z,96132.44
2023-02-06T15:29:30.161Z,96126.94
2023-02-06T15:32:03.381Z,96145.63
2023-02-06T15:34:30.438Z,96148.53
2023-02-06T15:36:57.237Z,96155.47
2023-02-06T15:39:25.228Z,96160.66
2023-02-06T15:41:53.200Z,96161.63
2023-02-06T15:44:24.479Z,96162.47
2023-02-06T15:46:52.763Z,96155.97
2023-02-06T15:49:48.172Z,96171.16
2023-02-06T15:52:35.985Z,96161.31
2023-02-06T15:55:04.971Z,96181.38
2023-02-06T15:57:35.559Z,96183.22
2023-02-06T16:00:09.252Z,96182.44
2023-02-06T16:02:40.787Z,96188.38
2023-02-06T16:05:19.008Z,96180.91
2023-02-06T16:07:48.447Z,96198.66
2023-02-06T16:10:23.553Z,96195.19
2023-02-06T16:12:51.748Z,96212.16
2023-02-06T16:15:35.521Z,96208.94
2023-02-06T16:18:19.375Z,96204.88
2023-02-06T16:20:46.904Z,96217.66
2023-02-06T16:23:24.538Z,96221.06
2023-02-06T16:26:07.541Z,96217.97
2023-02-06T16:28:46.072Z,96214.63
2023-02-06T16:31:17.148Z,96220.63
2023-02-06T16:33:47.980Z,96229.13
2023-02-06T16:36:17.476Z,96225.84
2023-02-06T16:38:54.042Z,96237.78
2023-02-06T16:41:38.305Z,96242.13
2023-02-06T16:44:15.861Z,96238.91
2023-02-06T16:46:43.647Z,96242.22
2023-02-06T16:49:18.347Z,96247.38
2023-02-06T16:51:46.704Z,96242.31
2023-02-06T16:54:26.449Z,96254.94
2023-02-06T16:56:55.343Z,96249.09
2023-02-06T16:59:22.526Z,96246.72
2023-02-06T17:01:49.535Z,96247.44
2023-02-06T17:04:16.417Z,96255.97
2023-02-06T17:06:43.425Z,96255.91
2023-02-06T17:09:14.104Z,96255.09
2023-02-06T17:11:41.068Z,96253.56
2023-02-06T17:14:07.989Z,96271.22
2023-02-06T17:16:36.161Z,96270.41
2023-02-06T17:19:02.983Z,96276.25
2023-02-06T17:21:32.872Z,96277.19
2023-02-06T17:24:00.138Z,96276.41
2023-02-06T17:26:27.100Z,96286.44
2023-02-06T17:28:54.043Z,96284.69
2023-02-06T17:31:21.969Z,96280.50
2023-02-06T17:33:49.606Z,96279.72
2023-02-06T17:36:29.628Z,96289.84
2023-02-06T17:38:59.059Z,96291.66
2023-02-06T17:41:27.515Z,96290.06
2023-02-06T17:43:54.343Z,96302.59
2023-02-06T17:46:21.273Z,96300.84
2023-02-06T17:48:48.511Z,96289.16
2023-02-06T17:51:15.456Z,96276.75
2023-02-06T17:53:42.318Z,96293.44
2023-02-06T17:56:13.189Z,96294.34
2023-02-06T17:58:41.452Z,96291.16
2023-02-06T18:01:13.048Z,96292.78
2023-02-06T18:03:40.988Z,96295.31
2023-02-06T18:06:08.487Z,96301.91
2023-02-06T18:08:35.603Z,96302.75
2023-02-06T18:11:11.710Z,96301.84
2023-02-06T18:13:40.519Z,96302.00
2023-02-06T18:16:08.659Z,96296.97
2023-02-06T18:18:35.648Z,96302.88
2023-02-06T18:21:02.564Z,96297.81
2023-02-06T18:23:29.481Z,96303.69
2023-02-06T18:26:01.692Z,96297.84
2023-02-06T18:28:28.927Z,96304.53
2023-02-06T18:30:55.889Z,96290.41
2023-02-06T18:33:22.874Z,96289.50
2023-02-06T18:35:52.406Z,96302.81
2023-02-06T18:38:19.277Z,96311.13
2023-02-06T18:40:46.907Z,96311.09
2023-02-06T18:43:15.067Z,96309.47
2023-02-06T18:45:43.798Z,96307.78
2023-02-06T18:48:12.737Z,96311.97
2023-02-06T18:50:42.702Z,96308.72
2023-02-06T18:53:09.889Z,96311.97
2023-02-06T18:55:37.961Z,96302.91
2023-02-06T18:58:06.245Z,96317.16
2023-02-06T19:00:36.011Z,96316.97
2023-02-06T19:03:03.469Z,96309.47
2023-02-06T19:05:35.081Z,96323.66
2023-02-06T19:08:01.983Z,96320.28
2023-02-06T19:10:29.451Z,96314.41
2023-02-06T19:12:56.331Z,96310.25
2023-02-06T19:15:23.178Z,96313.50
2023-02-06T19:17:50.863Z,96318.53
2023-02-06T19:20:18.953Z,96313.53
2023-02-06T19:22:45.858Z,96323.78
2023-02-06T19:25:14.629Z,96312.16
2023-02-06T19:27:41.895Z,96312.03
2023-02-06T19:30:09.602Z,96327.09
2023-02-06T19:32:36.769Z,96318.75
2023-02-06T19:35:04.136Z,96322.97
2023-02-06T19:37:31.346Z,96321.28
2023-02-06T19:39:58.294Z,96333.84
2023-02-06T19:42:25.200Z,96330.53
2023-02-06T19:44:56.627Z,96325.56
2023-02-06T19:47:23.517Z,96329.66
2023-02-06T19:49:52.652Z,96332.88
2023-02-06T19:52:20.375Z,96330.28
2023-02-06T19:54:47.978Z,96326.19
2023-02-06T19:57:16.168Z,96338.66
2023-02-06T19:59:43.178Z,96340.31
2023-02-06T20:02:14.429Z,96335.34
2023-02-06T20:04:42.142Z,96340.47
2023-02-06T20:07:09.038Z,96332.09
2023-02-06T20:09:41.191Z,96322.16
2023-02-06T20:12:10.420Z,96328.78
2023-02-06T20:14:37.298Z,96328.88
2023-02-06T20:17:04.723Z,96319.72
2023-02-06T20:19:32.290Z,96343.16
2023-02-06T20:22:00.259Z,96338.97
2023-02-06T20:24:29.403Z,96339.78
2023-02-06T20:26:59.149Z,96325.69
2023-02-06T20:29:38.050Z,96338.97
2023-02-06T20:32:06.365Z,96349.19
2023-02-06T20:34:33.897Z,96341.66
2023-02-06T20:37:01.189Z,96342.47
2023-02-06T20:39:28.742Z,96351.88
2023-02-06T20:41:55.721Z,96346.16
2023-02-06T20:44:23.036Z,96349.53
2023-02-06T20:46:50.013Z,96354.53
2023-02-06T20:49:23.210Z,96337.16
2023-02-06T20:51:50.597Z,96346.16
2023-02-06T20:54:19.409Z,96351.22
2023-02-06T20:56:46.464Z,96351.97
2023-02-06T20:59:15.903Z,96351.25
2023-02-06T21:01:43.150Z,96359.63
2023-02-06T21:04:12.254Z,96343.09
2023-02-06T21:06:40.483Z,96359.00
2023-02-06T21:09:08.881Z,96359.78
2023-02-06T21:11:40.942Z,96360.66
2023-02-06T21:14:08.606Z,96359.72
2023-02-06T21:16:37.740Z,96338.88
2023-02-06T21:19:09.812Z,96349.56
2023-02-06T21:21:37.840Z,96344.63
2023-02-06T21:24:05.223Z,96344.63
2023-02-06T21:26:33.036Z,96343.84
2023-02-06T21:29:02.570Z,96348.94
2023-02-06T21:31:36.923Z,96345.63
2023-02-06T21:34:11.947Z,96350.81
2023-02-06T21:36:39.775Z,96350.84
2023-02-06T21:39:07.407Z,96348.38
2023-02-06T21:41:34.759Z,96345.09
2023-02-06T21:44:01.641Z,96346.81
2023-02-06T21:46:31.145Z,96350.19
2023-02-06T21:48:58.057Z,96350.28
2023-02-06T21:51:25.412Z,96356.13
2023-02-06T21:53:52.313Z,96366.28
2023-02-06T21:56:25.130Z,96357.88
2023-02-06T21:58:52.256Z,96365.44
2023-02-06T22:01:28.722Z,96358.78
2023-02-06T22:03:58.225Z,96362.19
2023-02-06T22:06:25.826Z,96370.56
2023-02-06T22:08:55.923Z,96377.25
2023-02-06T22:11:22.785Z,96374.66
2023-02-06T22:13:50.751Z,96368.88
2023-02-06T22:16:20.929Z,96375.53
2023-02-06T22:18:47.866Z,96379.66
2023-02-06T22:21:18.440Z,96375.41
2023-02-06T22:23:46.439Z,96381.22
2023-02-06T22:26:16.120Z,96387.16
2023-02-06T22:28:44.264Z,96378.63
2023-02-06T22:31:14.177Z,96381.88
2023-02-06T22:33:41.259Z,96382.63
2023-02-06T22:36:10.950Z,96381.72
2023-02-06T22:38:38.722Z,96376.63
2023-02-06T22:41:07.935Z,96383.22
2023-02-06T22:43:37.362Z,96377.28
2023-02-06T22:46:05.865Z,96388.13
2023-02-06T22:48:32.973Z,96386.47
2023-02-06T22:51:08.410Z,96390.59
2023-02-06T22:53:37.056Z,96387.34
2023-02-06T22:56:29.359Z,96380.63
2023-02-06T22:59:00.407Z,96381.47
2023-02-06T23:01:31.079Z,96384.88
2023-02-06T23:03:58.301Z,96386.53
2023-02-06T23:06:27.056Z,96387.34
2023-02-06T23:08:55.514Z,96389.03
2023-02-06T23:11:23.433Z,96389.94
